sensor_id;sensor_type;location;lat;lon;timestamp;P1;durP1;ratioP1;P2;durP2;ratioP2
18879;SDS011;9572;52.378;13.404;2022-08-14T00:00:07;13.65;;;12.25;;
18879;SDS011;9572;52.378;13.404;2022-08-14T00:02:37;13.85;;;12.55;;
18879;SDS011;9572;52.378;13.404;2022-08-14T00:05:06;15.98;;;14.23;;
18879;SDS011;9572;52.378;13.404;2022-08-14T00:07:36;16.90;;;13.55;;
18879;SDS011;9572;52.378;13.404;2022-08-14T00:10:04;15.25;;;13.15;;
18879;SDS011;9572;52.378;13.404;2022-08-14T00:12:34;12.10;;;10.90;;
18879;SDS011;9572;52.378;13.404;2022-08-14T00:15:04;14.40;;;12.90;;
18879;SDS011;9572;52.378;13.404;2022-08-14T00:17:33;13.57;;;12.27;;
18879;SDS011;9572;52.378;13.404;2022-08-14T00:20:00;14.15;;;12.68;;
18879;SDS011;9572;52.378;13.404;2022-08-14T00:22:28;12.65;;;11.45;;
18879;SDS011;9572;52.378;13.404;2022-08-14T00:24:56;14.57;;;12.98;;
18879;SDS011;9572;52.378;13.404;2022-08-14T00:27:22;15.80;;;13.95;;
18879;SDS011;9572;52.378;13.404;2022-08-14T00:29:49;15.02;;;12.88;;
18879;SDS011;9572;52.378;13.404;2022-08-14T00:32:16;13.30;;;11.95;;
18879;SDS011;9572;52.378;13.404;2022-08-14T00:34:43;14.48;;;13.07;;
18879;SDS011;9572;52.378;13.404;2022-08-14T00:37:10;13.95;;;12.55;;
18879;SDS011;9572;52.378;13.404;2022-08-14T00:39:38;14.18;;;12.77;;
18879;SDS011;9572;52.378;13.404;2022-08-14T00:42:05;13.38;;;12.07;;
18879;SDS011;9572;52.378;13.404;2022-08-14T00:44:33;15.80;;;13.40;;
18879;SDS011;9572;52.378;13.404;2022-08-14T00:47:00;13.90;;;12.50;;
18879;SDS011;9572;52.378;13.404;2022-08-14T00:49:30;16.35;;;13.50;;
18879;SDS011;9572;52.378;13.404;2022-08-14T00:51:57;14.20;;;12.73;;
18879;SDS011;9572;52.378;13.404;2022-08-14T00:54:25;14.05;;;12.65;;
18879;SDS011;9572;52.378;13.404;2022-08-14T00:56:54;17.63;;;13.15;;
18879;SDS011;9572;52.378;13.404;2022-08-14T00:59:22;15.43;;;13.65;;
18879;SDS011;9572;52.378;13.404;2022-08-14T01:01:50;17.10;;;14.10;;
18879;SDS011;9572;52.378;13.404;2022-08-14T01:04:20;15.10;;;13.55;;
18879;SDS011;9572;52.378;13.404;2022-08-14T01:06:48;15.15;;;12.75;;
18879;SDS011;9572;52.378;13.404;2022-08-14T01:09:16;13.32;;;12.02;;
18879;SDS011;9572;52.378;13.404;2022-08-14T01:11:47;16.65;;;13.80;;
18879;SDS011;9572;52.378;13.404;2022-08-14T01:14:16;12.75;;;11.45;;
18879;SDS011;9572;52.378;13.404;2022-08-14T01:16:43;14.60;;;13.20;;
18879;SDS011;9572;52.378;13.404;2022-08-14T01:19:11;15.45;;;13.85;;
18879;SDS011;9572;52.378;13.404;2022-08-14T01:21:57;15.60;;;14.02;;
18879;SDS011;9572;52.378;13.404;2022-08-14T01:24:24;18.45;;;14.43;;
18879;SDS011;9572;52.378;13.404;2022-08-14T01:26:52;16.35;;;14.68;;
18879;SDS011;9572;52.378;13.404;2022-08-14T01:29:19;16.40;;;13.68;;
18879;SDS011;9572;52.378;13.404;2022-08-14T01:31:46;15.95;;;14.23;;
18879;SDS011;9572;52.378;13.404;2022-08-14T01:34:13;18.73;;;14.70;;
18879;SDS011;9572;52.378;13.404;2022-08-14T01:36:43;14.85;;;13.38;;
18879;SDS011;9572;52.378;13.404;2022-08-14T01:39:12;16.80;;;13.90;;
18879;SDS011;9572;52.378;13.404;2022-08-14T01:41:41;16.33;;;13.40;;
18879;SDS011;9572;52.378;13.404;2022-08-14T01:44:20;15.13;;;13.20;;
18879;SDS011;9572;52.378;13.404;2022-08-14T01:46:50;15.55;;;13.55;;
18879;SDS011;9572;52.378;13.404;2022-08-14T01:49:18;14.70;;;13.15;;
18879;SDS011;9572;52.378;13.404;2022-08-14T01:51:46;13.88;;;12.55;;
18879;SDS011;9572;52.378;13.404;2022-08-14T01:54:19;13.68;;;12.38;;
18879;SDS011;9572;52.378;13.404;2022-08-14T01:56:47;14.70;;;12.50;;
18879;SDS011;9572;52.378;13.404;2022-08-14T01:59:20;12.93;;;11.73;;
18879;SDS011;9572;52.378;13.404;2022-08-14T02:01:50;13.65;;;12.20;;
18879;SDS011;9572;52.378;13.404;2022-08-14T02:04:18;12.35;;;11.07;;
18879;SDS011;9572;52.378;13.404;2022-08-14T02:06:46;18.65;;;13.25;;
18879;SDS011;9572;52.378;13.404;2022-08-14T02:09:14;12.65;;;11.38;;
18879;SDS011;9572;52.378;13.404;2022-08-14T02:11:44;12.48;;;11.23;;
18879;SDS011;9572;52.378;13.404;2022-08-14T02:14:11;14.57;;;13.07;;
18879;SDS011;9572;52.378;13.404;2022-08-14T02:16:39;13.52;;;12.13;;
18879;SDS011;9572;52.378;13.404;2022-08-14T02:19:08;13.63;;;12.32;;
18879;SDS011;9572;52.378;13.404;2022-08-14T02:21:37;13.77;;;12.35;;
18879;SDS011;9572;52.378;13.404;2022-08-14T02:24:04;13.82;;;11.40;;
18879;SDS011;9572;52.378;13.404;2022-08-14T02:26:34;16.27;;;12.60;;
18879;SDS011;9572;52.378;13.404;2022-08-14T02:29:05;13.25;;;11.95;;
18879;SDS011;9572;52.378;13.404;2022-08-14T02:31:34;13.65;;;11.93;;
18879;SDS011;9572;52.378;13.404;2022-08-14T02:34:04;16.02;;;11.85;;
18879;SDS011;9572;52.378;13.404;2022-08-14T02:36:34;14.63;;;12.73;;
18879;SDS011;9572;52.378;13.404;2022-08-14T02:39:01;12.93;;;11.50;;
18879;SDS011;9572;52.378;13.404;2022-08-14T02:41:29;13.63;;;12.23;;
18879;SDS011;9572;52.378;13.404;2022-08-14T02:43:56;13.20;;;11.88;;
18879;SDS011;9572;52.378;13.404;2022-08-14T02:46:24;12.98;;;11.65;;
18879;SDS011;9572;52.378;13.404;2022-08-14T02:48:51;13.50;;;12.20;;
18879;SDS011;9572;52.378;13.404;2022-08-14T02:51:19;18.25;;;14.75;;
18879;SDS011;9572;52.378;13.404;2022-08-14T02:53:46;16.13;;;14.48;;
18879;SDS011;9572;52.378;13.404;2022-08-14T02:56:13;14.00;;;12.45;;
18879;SDS011;9572;52.378;13.404;2022-08-14T02:58:43;14.02;;;12.65;;
18879;SDS011;9572;52.378;13.404;2022-08-14T03:01:12;15.18;;;13.57;;
18879;SDS011;9572;52.378;13.404;2022-08-14T03:03:41;14.90;;;13.25;;
18879;SDS011;9572;52.378;13.404;2022-08-14T03:06:09;15.30;;;13.25;;
18879;SDS011;9572;52.378;13.404;2022-08-14T03:08:38;13.98;;;12.55;;
18879;SDS011;9572;52.378;13.404;2022-08-14T03:11:10;15.30;;;12.20;;
18879;SDS011;9572;52.378;13.404;2022-08-14T03:13:40;14.35;;;12.10;;
18879;SDS011;9572;52.378;13.404;2022-08-14T03:16:09;17.45;;;12.98;;
18879;SDS011;9572;52.378;13.404;2022-08-14T03:18:39;13.68;;;12.27;;
18879;SDS011;9572;52.378;13.404;2022-08-14T03:21:09;14.25;;;12.13;;
18879;SDS011;9572;52.378;13.404;2022-08-14T03:23:38;13.02;;;11.73;;
18879;SDS011;9572;52.378;13.404;2022-08-14T03:26:06;11.75;;;10.55;;
18879;SDS011;9572;52.378;13.404;2022-08-14T03:28:34;13.93;;;12.52;;
18879;SDS011;9572;52.378;13.404;2022-08-14T03:31:04;12.65;;;11.45;;
18879;SDS011;9572;52.378;13.404;2022-08-14T03:33:31;13.48;;;12.18;;
18879;SDS011;9572;52.378;13.404;2022-08-14T03:36:03;14.93;;;13.50;;
18879;SDS011;9572;52.378;13.404;2022-08-14T03:38:32;15.75;;;14.13;;
18879;SDS011;9572;52.378;13.404;2022-08-14T03:41:06;16.15;;;14.45;;
18879;SDS011;9572;52.378;13.404;2022-08-14T03:43:38;14.85;;;13.32;;
18879;SDS011;9572;52.378;13.404;2022-08-14T03:46:05;16.63;;;14.90;;
18879;SDS011;9572;52.378;13.404;2022-08-14T03:48:34;14.70;;;13.25;;
18879;SDS011;9572;52.378;13.404;2022-08-14T03:51:05;17.52;;;14.80;;
18879;SDS011;9572;52.378;13.404;2022-08-14T03:53:33;16.70;;;14.82;;
18879;SDS011;9572;52.378;13.404;2022-08-14T03:56:02;15.27;;;13.68;;
18879;SDS011;9572;52.378;13.404;2022-08-14T03:58:29;14.52;;;13.00;;
18879;SDS011;9572;52.378;13.404;2022-08-14T04:00:56;15.95;;;13.95;;
18879;SDS011;9572;52.378;13.404;2022-08-14T04:03:24;16.23;;;14.63;;
18879;SDS011;9572;52.378;13.404;2022-08-14T04:05:51;16.35;;;13.45;;
18879;SDS011;9572;52.378;13.404;2022-08-14T04:08:20;15.45;;;13.90;;
18879;SDS011;9572;52.378;13.404;2022-08-14T04:10:47;15.32;;;13.80;;
18879;SDS011;9572;52.378;13.404;2022-08-14T04:13:14;16.52;;;14.82;;
18879;SDS011;9572;52.378;13.404;2022-08-14T04:15:42;16.90;;;15.20;;
18879;SDS011;9572;52.378;13.404;2022-08-14T04:18:09;17.60;;;15.73;;
18879;SDS011;9572;52.378;13.404;2022-08-14T04:20:38;15.88;;;14.32;;
18879;SDS011;9572;52.378;13.404;2022-08-14T04:23:06;16.83;;;14.18;;
18879;SDS011;9572;52.378;13.404;2022-08-14T04:25:36;14.80;;;12.98;;
18879;SDS011;9572;52.378;13.404;2022-08-14T04:28:04;15.60;;;13.98;;
18879;SDS011;9572;52.378;13.404;2022-08-14T04:30:33;16.77;;;14.23;;
18879;SDS011;9572;52.378;13.404;2022-08-14T04:33:03;15.65;;;14.05;;
18879;SDS011;9572;52.378;13.404;2022-08-14T04:35:30;15.38;;;13.63;;
18879;SDS011;9572;52.378;13.404;2022-08-14T04:37:57;15.57;;;13.40;;
18879;SDS011;9572;52.378;13.404;2022-08-14T04:40:43;14.95;;;13.43;;
18879;SDS011;9572;52.378;13.404;2022-08-14T04:43:27;14.82;;;13.38;;
18879;SDS011;9572;52.378;13.404;2022-08-14T04:46:04;15.77;;;13.80;;
18879;SDS011;9572;52.378;13.404;2022-08-14T04:48:32;16.30;;;14.55;;
18879;SDS011;9572;52.378;13.404;2022-08-14T04:51:00;15.57;;;13.90;;
18879;SDS011;9572;52.378;13.404;2022-08-14T04:53:28;14.20;;;12.90;;
18879;SDS011;9572;52.378;13.404;2022-08-14T04:55:56;14.55;;;13.05;;
18879;SDS011;9572;52.378;13.404;2022-08-14T04:58:24;14.05;;;12.70;;
18879;SDS011;9572;52.378;13.404;2022-08-14T05:00:53;15.38;;;13.07;;
18879;SDS011;9572;52.378;13.404;2022-08-14T05:03:25;15.95;;;13.95;;
18879;SDS011;9572;52.378;13.404;2022-08-14T05:05:54;14.15;;;12.68;;
18879;SDS011;9572;52.378;13.404;2022-08-14T05:08:21;14.70;;;13.25;;
18879;SDS011;9572;52.378;13.404;2022-08-14T05:10:50;15.07;;;13.50;;
18879;SDS011;9572;52.378;13.404;2022-08-14T05:13:20;15.25;;;13.68;;
18879;SDS011;9572;52.378;13.404;2022-08-14T05:15:50;16.08;;;14.38;;
18879;SDS011;9572;52.378;13.404;2022-08-14T05:18:19;15.55;;;13.48;;
18879;SDS011;9572;52.378;13.404;2022-08-14T05:20:49;14.77;;;13.32;;
18879;SDS011;9572;52.378;13.404;2022-08-14T05:23:17;15.13;;;13.55;;
18879;SDS011;9572;52.378;13.404;2022-08-14T05:25:45;18.30;;;14.38;;
18879;SDS011;9572;52.378;13.404;2022-08-14T05:28:13;15.32;;;13.85;;
18879;SDS011;9572;52.378;13.404;2022-08-14T05:30:44;16.30;;;14.70;;
18879;SDS011;9572;52.378;13.404;2022-08-14T05:33:12;17.15;;;15.38;;
18879;SDS011;9572;52.378;13.404;2022-08-14T05:35:40;15.32;;;13.82;;
18879;SDS011;9572;52.378;13.404;2022-08-14T05:38:07;16.48;;;14.38;;
18879;SDS011;9572;52.378;13.404;2022-08-14T05:40:36;18.48;;;16.60;;
18879;SDS011;9572;52.378;13.404;2022-08-14T05:43:04;16.33;;;14.63;;
18879;SDS011;9572;52.378;13.404;2022-08-14T05:45:31;17.33;;;14.00;;
18879;SDS011;9572;52.378;13.404;2022-08-14T05:48:01;13.95;;;12.55;;
18879;SDS011;9572;52.378;13.404;2022-08-14T05:50:28;13.30;;;12.00;;
18879;SDS011;9572;52.378;13.404;2022-08-14T05:52:56;12.70;;;11.50;;
18879;SDS011;9572;52.378;13.404;2022-08-14T05:55:24;14.38;;;11.95;;
18879;SDS011;9572;52.378;13.404;2022-08-14T05:57:52;11.80;;;10.75;;
18879;SDS011;9572;52.378;13.404;2022-08-14T06:00:21;14.82;;;13.25;;
18879;SDS011;9572;52.378;13.404;2022-08-14T06:02:49;12.73;;;11.32;;
18879;SDS011;9572;52.378;13.404;2022-08-14T06:05:29;13.60;;;12.30;;
18879;SDS011;9572;52.378;13.404;2022-08-14T06:07:57;13.13;;;10.65;;
18879;SDS011;9572;52.378;13.404;2022-08-14T06:10:25;14.30;;;11.27;;
18879;SDS011;9572;52.378;13.404;2022-08-14T06:12:52;14.30;;;11.02;;
18879;SDS011;9572;52.378;13.404;2022-08-14T06:15:19;11.32;;;10.05;;
18879;SDS011;9572;52.378;13.404;2022-08-14T06:17:47;13.25;;;11.10;;
18879;SDS011;9572;52.378;13.404;2022-08-14T06:20:15;11.25;;;10.05;;
18879;SDS011;9572;52.378;13.404;2022-08-14T06:22:44;12.55;;;11.35;;
18879;SDS011;9572;52.378;13.404;2022-08-14T06:25:13;12.05;;;10.85;;
18879;SDS011;9572;52.378;13.404;2022-08-14T06:27:41;13.05;;;10.65;;
18879;SDS011;9572;52.378;13.404;2022-08-14T06:30:10;14.15;;;11.55;;
18879;SDS011;9572;52.378;13.404;2022-08-14T06:32:38;12.52;;;10.88;;
18879;SDS011;9572;52.378;13.404;2022-08-14T06:35:06;12.32;;;11.00;;
18879;SDS011;9572;52.378;13.404;2022-08-14T06:37:40;11.90;;;10.45;;
18879;SDS011;9572;52.378;13.404;2022-08-14T06:40:11;11.77;;;10.52;;
18879;SDS011;9572;52.378;13.404;2022-08-14T06:42:40;12.02;;;10.05;;
18879;SDS011;9572;52.378;13.404;2022-08-14T06:45:07;11.45;;;10.35;;
18879;SDS011;9572;52.378;13.404;2022-08-14T06:47:35;14.20;;;10.88;;
18879;SDS011;9572;52.378;13.404;2022-08-14T06:50:03;13.38;;;11.13;;
18879;SDS011;9572;52.378;13.404;2022-08-14T06:52:32;11.50;;;10.35;;
18879;SDS011;9572;52.378;13.404;2022-08-14T06:54:59;10.82;;;9.73;;
18879;SDS011;9572;52.378;13.404;2022-08-14T06:57:34;11.10;;;9.55;;
18879;SDS011;9572;52.378;13.404;2022-08-14T07:00:03;10.85;;;9.32;;
18879;SDS011;9572;52.378;13.404;2022-08-14T07:02:32;11.65;;;9.35;;
18879;SDS011;9572;52.378;13.404;2022-08-14T07:05:17;18.40;;;14.93;;
18879;SDS011;9572;52.378;13.404;2022-08-14T07:08:01;10.65;;;9.63;;
18879;SDS011;9572;52.378;13.404;2022-08-14T07:10:30;10.20;;;9.18;;
18879;SDS011;9572;52.378;13.404;2022-08-14T07:12:59;14.55;;;12.98;;
18879;SDS011;9572;52.378;13.404;2022-08-14T07:15:26;10.23;;;8.77;;
18879;SDS011;9572;52.378;13.404;2022-08-14T07:17:53;12.85;;;9.68;;
18879;SDS011;9572;52.378;13.404;2022-08-14T07:20:20;10.73;;;9.25;;
18879;SDS011;9572;52.378;13.404;2022-08-14T07:22:47;9.05;;;8.15;;
18879;SDS011;9572;52.378;13.404;2022-08-14T07:25:14;8.52;;;7.72;;
18879;SDS011;9572;52.378;13.404;2022-08-14T07:27:41;14.40;;;9.98;;
18879;SDS011;9572;52.378;13.404;2022-08-14T07:30:10;11.68;;;8.82;;
18879;SDS011;9572;52.378;13.404;2022-08-14T07:32:38;8.90;;;8.00;;
18879;SDS011;9572;52.378;13.404;2022-08-14T07:35:05;10.75;;;8.20;;
18879;SDS011;9572;52.378;13.404;2022-08-14T07:37:32;8.88;;;7.90;;
18879;SDS011;9572;52.378;13.404;2022-08-14T07:39:59;10.02;;;8.02;;
18879;SDS011;9572;52.378;13.404;2022-08-14T07:42:27;13.32;;;9.05;;
18879;SDS011;9572;52.378;13.404;2022-08-14T07:44:55;11.05;;;9.05;;
18879;SDS011;9572;52.378;13.404;2022-08-14T07:47:23;8.52;;;7.60;;
18879;SDS011;9572;52.378;13.404;2022-08-14T07:49:53;9.30;;;8.40;;
18879;SDS011;9572;52.378;13.404;2022-08-14T07:52:26;8.90;;;8.00;;
18879;SDS011;9572;52.378;13.404;2022-08-14T07:54:53;8.90;;;8.00;;
18879;SDS011;9572;52.378;13.404;2022-08-14T07:57:21;9.88;;;8.93;;
18879;SDS011;9572;52.378;13.404;2022-08-14T07:59:48;10.40;;;8.43;;
18879;SDS011;9572;52.378;13.404;2022-08-14T08:02:16;9.30;;;7.63;;
18879;SDS011;9572;52.378;13.404;2022-08-14T08:04:44;10.23;;;9.10;;
18879;SDS011;9572;52.378;13.404;2022-08-14T08:07:13;11.70;;;8.95;;
18879;SDS011;9572;52.378;13.404;2022-08-14T08:09:42;11.52;;;8.13;;
18879;SDS011;9572;52.378;13.404;2022-08-14T08:12:14;12.32;;;8.55;;
18879;SDS011;9572;52.378;13.404;2022-08-14T08:14:42;7.65;;;6.93;;
18879;SDS011;9572;52.378;13.404;2022-08-14T08:17:10;8.90;;;8.00;;
18879;SDS011;9572;52.378;13.404;2022-08-14T08:19:37;11.15;;;7.72;;
18879;SDS011;9572;52.378;13.404;2022-08-14T08:22:06;7.25;;;6.55;;
18879;SDS011;9572;52.378;13.404;2022-08-14T08:24:33;8.07;;;6.95;;
18879;SDS011;9572;52.378;13.404;2022-08-14T08:27:00;7.82;;;7.00;;
18879;SDS011;9572;52.378;13.404;2022-08-14T08:29:27;7.45;;;6.63;;
18879;SDS011;9572;52.378;13.404;2022-08-14T08:31:54;8.07;;;7.28;;
18879;SDS011;9572;52.378;13.404;2022-08-14T08:34:23;7.82;;;7.03;;
18879;SDS011;9572;52.378;13.404;2022-08-14T08:36:50;8.10;;;6.47;;
18879;SDS011;9572;52.378;13.404;2022-08-14T08:39:18;8.95;;;6.65;;
18879;SDS011;9572;52.378;13.404;2022-08-14T08:41:46;11.45;;;6.50;;
18879;SDS011;9572;52.378;13.404;2022-08-14T08:44:13;11.27;;;7.07;;
18879;SDS011;9572;52.378;13.404;2022-08-14T08:46:42;9.43;;;7.00;;
18879;SDS011;9572;52.378;13.404;2022-08-14T08:49:09;8.05;;;6.65;;
18879;SDS011;9572;52.378;13.404;2022-08-14T08:51:37;7.75;;;6.43;;
18879;SDS011;9572;52.378;13.404;2022-08-14T08:54:05;9.63;;;6.30;;
18879;SDS011;9572;52.378;13.404;2022-08-14T08:56:37;7.00;;;6.03;;
18879;SDS011;9572;52.378;13.404;2022-08-14T08:59:15;8.50;;;6.38;;
18879;SDS011;9572;52.378;13.404;2022-08-14T09:01:48;7.13;;;6.35;;
18879;SDS011;9572;52.378;13.404;2022-08-14T09:04:16;8.40;;;6.05;;
18879;SDS011;9572;52.378;13.404;2022-08-14T09:06:44;6.70;;;5.95;;
18879;SDS011;9572;52.378;13.404;2022-08-14T09:09:21;9.02;;;5.82;;
18879;SDS011;9572;52.378;13.404;2022-08-14T09:11:51;7.10;;;6.05;;
18879;SDS011;9572;52.378;13.404;2022-08-14T09:14:18;7.05;;;5.63;;
18879;SDS011;9572;52.378;13.404;2022-08-14T09:16:45;7.03;;;6.03;;
18879;SDS011;9572;52.378;13.404;2022-08-14T09:19:13;6.53;;;5.90;;
18879;SDS011;9572;52.378;13.404;2022-08-14T09:21:41;7.35;;;6.15;;
18879;SDS011;9572;52.378;13.404;2022-08-14T09:24:09;6.15;;;5.30;;
18879;SDS011;9572;52.378;13.404;2022-08-14T09:26:36;7.22;;;5.72;;
18879;SDS011;9572;52.378;13.404;2022-08-14T09:29:05;8.30;;;6.53;;
18879;SDS011;9572;52.378;13.404;2022-08-14T09:31:34;6.90;;;5.72;;
18879;SDS011;9572;52.378;13.404;2022-08-14T09:34:07;9.25;;;5.80;;
18879;SDS011;9572;52.378;13.404;2022-08-14T09:36:47;8.25;;;5.97;;
18879;SDS011;9572;52.378;13.404;2022-08-14T09:39:35;8.55;;;6.32;;
18879;SDS011;9572;52.378;13.404;2022-08-14T09:42:13;8.98;;;5.97;;
18879;SDS011;9572;52.378;13.404;2022-08-14T09:44:55;11.70;;;5.32;;
18879;SDS011;9572;52.378;13.404;2022-08-14T09:47:44;5.78;;;5.00;;
18879;SDS011;9572;52.378;13.404;2022-08-14T09:50:19;10.73;;;5.57;;
18879;SDS011;9572;52.378;13.404;2022-08-14T09:52:52;5.50;;;4.90;;
18879;SDS011;9572;52.378;13.404;2022-08-14T09:55:22;7.97;;;4.90;;
18879;SDS011;9572;52.378;13.404;2022-08-14T09:57:50;10.63;;;4.82;;
18879;SDS011;9572;52.378;13.404;2022-08-14T10:00:21;8.25;;;5.35;;
18879;SDS011;9572;52.378;13.404;2022-08-14T10:03:06;9.95;;;5.10;;
18879;SDS011;9572;52.378;13.404;2022-08-14T10:05:34;8.57;;;4.70;;
18879;SDS011;9572;52.378;13.404;2022-08-14T10:08:03;7.70;;;5.32;;
18879;SDS011;9572;52.378;13.404;2022-08-14T10:10:31;8.82;;;5.30;;
18879;SDS011;9572;52.378;13.404;2022-08-14T10:12:59;6.65;;;4.53;;
18879;SDS011;9572;52.378;13.404;2022-08-14T10:15:30;6.63;;;3.92;;
18879;SDS011;9572;52.378;13.404;2022-08-14T10:18:05;5.38;;;4.20;;
18879;SDS011;9572;52.378;13.404;2022-08-14T10:20:34;8.95;;;4.30;;
18879;SDS011;9572;52.378;13.404;2022-08-14T10:23:08;6.55;;;3.78;;
18879;SDS011;9572;52.378;13.404;2022-08-14T10:25:40;5.47;;;3.25;;
18879;SDS011;9572;52.378;13.404;2022-08-14T10:28:09;4.00;;;3.60;;
18879;SDS011;9572;52.378;13.404;2022-08-14T10:30:41;6.72;;;3.88;;
18879;SDS011;9572;52.378;13.404;2022-08-14T10:33:22;6.03;;;3.70;;
18879;SDS011;9572;52.378;13.404;2022-08-14T10:35:50;8.13;;;3.40;;
18879;SDS011;9572;52.378;13.404;2022-08-14T10:38:24;2.83;;;2.70;;
18879;SDS011;9572;52.378;13.404;2022-08-14T10:40:52;5.63;;;3.55;;
18879;SDS011;9572;52.378;13.404;2022-08-14T10:43:20;6.47;;;3.38;;
18879;SDS011;9572;52.378;13.404;2022-08-14T10:45:55;3.53;;;3.22;;
18879;SDS011;9572;52.378;13.404;2022-08-14T10:48:26;7.72;;;3.45;;
18879;SDS011;9572;52.378;13.404;2022-08-14T10:50:53;11.65;;;3.53;;
18879;SDS011;9572;52.378;13.404;2022-08-14T10:53:28;3.85;;;3.20;;
18879;SDS011;9572;52.378;13.404;2022-08-14T10:55:57;4.20;;;3.30;;
18879;SDS011;9572;52.378;13.404;2022-08-14T10:58:26;6.95;;;3.65;;
18879;SDS011;9572;52.378;13.404;2022-08-14T11:00:56;5.32;;;3.33;;
18879;SDS011;9572;52.378;13.404;2022-08-14T11:03:24;3.60;;;3.28;;
18879;SDS011;9572;52.378;13.404;2022-08-14T11:06:09;5.28;;;3.22;;
18879;SDS011;9572;52.378;13.404;2022-08-14T11:08:42;8.45;;;3.67;;
18879;SDS011;9572;52.378;13.404;2022-08-14T11:11:09;6.25;;;3.50;;
18879;SDS011;9572;52.378;13.404;2022-08-14T11:13:39;6.97;;;2.90;;
18879;SDS011;9572;52.378;13.404;2022-08-14T11:16:09;6.13;;;2.92;;
18879;SDS011;9572;52.378;13.404;2022-08-14T11:18:37;3.08;;;2.83;;
18879;SDS011;9572;52.378;13.404;2022-08-14T11:21:07;3.88;;;3.40;;
18879;SDS011;9572;52.378;13.404;2022-08-14T11:23:35;5.07;;;3.28;;
18879;SDS011;9572;52.378;13.404;2022-08-14T11:26:04;3.58;;;3.15;;
18879;SDS011;9572;52.378;13.404;2022-08-14T11:28:32;9.85;;;3.38;;
18879;SDS011;9572;52.378;13.404;2022-08-14T11:31:02;5.13;;;3.15;;
18879;SDS011;9572;52.378;13.404;2022-08-14T11:33:32;5.72;;;3.40;;
18879;SDS011;9572;52.378;13.404;2022-08-14T11:36:03;4.10;;;3.17;;
18879;SDS011;9572;52.378;13.404;2022-08-14T11:38:37;5.90;;;3.35;;
18879;SDS011;9572;52.378;13.404;2022-08-14T11:41:04;7.22;;;3.25;;
18879;SDS011;9572;52.378;13.404;2022-08-14T11:43:36;5.25;;;3.55;;
18879;SDS011;9572;52.378;13.404;2022-08-14T11:46:05;7.85;;;3.33;;
18879;SDS011;9572;52.378;13.404;2022-08-14T11:48:43;7.55;;;3.33;;
18879;SDS011;9572;52.378;13.404;2022-08-14T11:51:11;5.38;;;3.15;;
18879;SDS011;9572;52.378;13.404;2022-08-14T11:53:51;7.30;;;3.90;;
18879;SDS011;9572;52.378;13.404;2022-08-14T11:56:20;5.43;;;3.08;;
18879;SDS011;9572;52.378;13.404;2022-08-14T11:58:51;5.97;;;3.20;;
18879;SDS011;9572;52.378;13.404;2022-08-14T12:01:25;5.90;;;3.30;;
18879;SDS011;9572;52.378;13.404;2022-08-14T12:04:06;4.65;;;4.20;;
18879;SDS011;9572;52.378;13.404;2022-08-14T12:06:42;4.18;;;3.50;;
18879;SDS011;9572;52.378;13.404;2022-08-14T12:09:12;4.88;;;3.58;;
18879;SDS011;9572;52.378;13.404;2022-08-14T12:11:40;8.43;;;4.22;;
18879;SDS011;9572;52.378;13.404;2022-08-14T12:14:09;5.97;;;3.63;;
18879;SDS011;9572;52.378;13.404;2022-08-14T12:16:36;7.32;;;4.05;;
18879;SDS011;9572;52.378;13.404;2022-08-14T12:19:05;5.53;;;3.88;;
18879;SDS011;9572;52.378;13.404;2022-08-14T12:21:32;7.47;;;4.60;;
18879;SDS011;9572;52.378;13.404;2022-08-14T12:23:59;3.78;;;3.28;;
18879;SDS011;9572;52.378;13.404;2022-08-14T12:26:32;6.57;;;3.63;;
18879;SDS011;9572;52.378;13.404;2022-08-14T12:29:03;5.93;;;3.80;;
18879;SDS011;9572;52.378;13.404;2022-08-14T12:31:32;3.80;;;3.42;;
18879;SDS011;9572;52.378;13.404;2022-08-14T12:34:00;3.78;;;3.47;;
18879;SDS011;9572;52.378;13.404;2022-08-14T12:36:30;4.40;;;3.83;;
18879;SDS011;9572;52.378;13.404;2022-08-14T12:38:57;6.55;;;3.63;;
18879;SDS011;9572;52.378;13.404;2022-08-14T12:41:26;6.25;;;3.53;;
18879;SDS011;9572;52.378;13.404;2022-08-14T12:43:56;6.45;;;3.90;;
18879;SDS011;9572;52.378;13.404;2022-08-14T12:46:26;4.38;;;3.03;;
18879;SDS011;9572;52.378;13.404;2022-08-14T12:48:58;6.63;;;3.83;;
18879;SDS011;9572;52.378;13.404;2022-08-14T12:51:32;5.60;;;3.35;;
18879;SDS011;9572;52.378;13.404;2022-08-14T12:54:10;3.63;;;3.33;;
18879;SDS011;9572;52.378;13.404;2022-08-14T12:56:38;3.30;;;3.10;;
18879;SDS011;9572;52.378;13.404;2022-08-14T12:59:13;5.72;;;3.35;;
18879;SDS011;9572;52.378;13.404;2022-08-14T13:01:43;5.38;;;3.38;;
18879;SDS011;9572;52.378;13.404;2022-08-14T13:04:11;8.88;;;3.50;;
18879;SDS011;9572;52.378;13.404;2022-08-14T13:06:43;6.80;;;3.45;;
18879;SDS011;9572;52.378;13.404;2022-08-14T13:09:12;4.15;;;3.75;;
18879;SDS011;9572;52.378;13.404;2022-08-14T13:11:41;5.18;;;3.78;;
18879;SDS011;9572;52.378;13.404;2022-08-14T13:14:09;6.88;;;3.50;;
18879;SDS011;9572;52.378;13.404;2022-08-14T13:16:38;3.17;;;2.97;;
18879;SDS011;9572;52.378;13.404;2022-08-14T13:19:07;7.57;;;3.00;;
18879;SDS011;9572;52.378;13.404;2022-08-14T13:21:38;5.22;;;3.28;;
18879;SDS011;9572;52.378;13.404;2022-08-14T13:24:09;3.20;;;3.00;;
18879;SDS011;9572;52.378;13.404;2022-08-14T13:26:38;9.05;;;2.88;;
18879;SDS011;9572;52.378;13.404;2022-08-14T13:29:09;3.70;;;2.90;;
18879;SDS011;9572;52.378;13.404;2022-08-14T13:31:38;6.20;;;2.88;;
18879;SDS011;9572;52.378;13.404;2022-08-14T13:34:11;3.90;;;2.45;;
18879;SDS011;9572;52.378;13.404;2022-08-14T13:36:38;8.07;;;2.95;;
18879;SDS011;9572;52.378;13.404;2022-08-14T13:39:12;4.22;;;2.88;;
18879;SDS011;9572;52.378;13.404;2022-08-14T13:41:41;4.43;;;2.75;;
18879;SDS011;9572;52.378;13.404;2022-08-14T13:47:28;6.00;;;3.63;;
18879;SDS011;9572;52.378;13.404;2022-08-14T13:50:38;7.85;;;3.38;;
18879;SDS011;9572;52.378;13.404;2022-08-14T14:02:46;3.58;;;2.60;;
18879;SDS011;9572;52.378;13.404;2022-08-14T14:05:15;5.05;;;2.50;;
18879;SDS011;9572;52.378;13.404;2022-08-14T14:07:56;5.85;;;3.13;;
18879;SDS011;9572;52.378;13.404;2022-08-14T14:27:29;3.00;;;2.70;;
18879;SDS011;9572;52.378;13.404;2022-08-14T14:30:12;4.68;;;2.85;;
18879;SDS011;9572;52.378;13.404;2022-08-14T14:35:27;3.90;;;3.15;;
18879;SDS011;9572;52.378;13.404;2022-08-14T14:42:18;4.72;;;3.10;;
18879;SDS011;9572;52.378;13.404;2022-08-14T14:52:15;5.82;;;2.70;;
18879;SDS011;9572;52.378;13.404;2022-08-14T14:58:24;8.20;;;2.80;;
18879;SDS011;9572;52.378;13.404;2022-08-14T15:01:45;2.67;;;2.47;;
18879;SDS011;9572;52.378;13.404;2022-08-14T15:04:35;3.92;;;2.20;;
18879;SDS011;9572;52.378;13.404;2022-08-14T15:07:10;2.78;;;2.47;;
18879;SDS011;9572;52.378;13.404;2022-08-14T15:09:38;6.32;;;3.00;;
18879;SDS011;9572;52.378;13.404;2022-08-14T15:12:07;3.03;;;2.83;;
18879;SDS011;9572;52.378;13.404;2022-08-14T15:14:49;2.88;;;2.67;;
18879;SDS011;9572;52.378;13.404;2022-08-14T15:17:16;2.60;;;2.40;;
18879;SDS011;9572;52.378;13.404;2022-08-14T15:19:57;4.10;;;2.65;;
18879;SDS011;9572;52.378;13.404;2022-08-14T15:22:33;2.80;;;2.60;;
18879;SDS011;9572;52.378;13.404;2022-08-14T15:25:14;5.18;;;2.47;;
18879;SDS011;9572;52.378;13.404;2022-08-14T15:28:30;7.20;;;2.72;;
18879;SDS011;9572;52.378;13.404;2022-08-14T15:30:57;3.25;;;2.63;;
18879;SDS011;9572;52.378;13.404;2022-08-14T15:36:15;3.20;;;2.53;;
18879;SDS011;9572;52.378;13.404;2022-08-14T15:38:49;3.20;;;2.60;;
18879;SDS011;9572;52.378;13.404;2022-08-14T15:48:45;2.55;;;2.35;;